Time;durP1;ratioP1;P1;durP2;ratioP2;P2;SDS_P1;SDS_P2;PMS_P1;PMS_P2;Temp;Humidity;BMP_temperature;BMP_pressure;BME280_temperature;BME280_humidity;BME280_pressure;Samples;Min_cycle;Max_cycle;Signal;HPM_P1;HPM_P2
2023/04/29 00:00:16;;;;;;;2.57;1.53;;;14.70;98.60;;;;;;937444;151;27324;-76
2023/04/29 00:02:43;;;;;;;1.65;1.55;;;14.80;98.60;;;;;;937344;152;27452;-76
2023/04/29 00:05:09;;;;;;;1.80;1.70;;;14.80;98.50;;;;;;937493;152;27304;-76
2023/04/29 00:07:36;;;;;;;2.27;1.53;;;14.80;98.60;;;;;;937213;151;27329;-76
2023/04/29 00:10:02;;;;;;;4.23;1.83;;;14.90;98.60;;;;;;936691;152;27322;-76
2023/04/29 00:12:30;;;;;;;1.60;1.50;;;14.90;98.60;;;;;;937327;152;27457;-76
2023/04/29 00:14:55;;;;;;;2.00;1.87;;;14.90;98.60;;;;;;936885;151;27370;-76
2023/04/29 00:17:22;;;;;;;1.80;1.70;;;14.90;98.60;;;;;;937131;151;27413;-76
2023/04/29 00:19:49;;;;;;;2.17;1.60;;;15.00;98.60;;;;;;937643;150;27414;-76
2023/04/29 00:22:16;;;;;;;1.67;1.43;;;15.00;98.60;;;;;;937524;152;27387;-76
2023/04/29 00:24:42;;;;;;;1.70;1.60;;;15.00;98.50;;;;;;937605;152;27364;-76
2023/04/29 00:27:10;;;;;;;1.98;1.70;;;15.10;98.60;;;;;;937337;151;27454;-76
2023/04/29 00:29:35;;;;;;;1.85;1.75;;;15.10;98.60;;;;;;940412;151;27365;-76
2023/04/29 00:32:02;;;;;;;2.10;1.67;;;15.10;98.50;;;;;;943499;149;27475;-76
2023/04/29 00:34:28;;;;;;;2.27;1.60;;;15.10;98.50;;;;;;943646;151;27355;-76
2023/04/29 00:36:55;;;;;;;1.77;1.67;;;15.20;98.50;;;;;;943716;149;27366;-75
2023/04/29 00:39:21;;;;;;;1.80;1.70;;;15.10;98.50;;;;;;943653;151;27282;-76
2023/04/29 00:41:48;;;;;;;1.70;1.60;;;15.20;98.50;;;;;;943758;151;27390;-76
2023/04/29 00:44:15;;;;;;;2.20;1.95;;;15.20;98.60;;;;;;943702;151;27417;-76
2023/04/29 00:46:41;;;;;;;1.97;1.87;;;15.20;98.50;;;;;;943785;151;27367;-76
2023/04/29 00:49:08;;;;;;;1.90;1.80;;;15.20;98.60;;;;;;943561;151;27319;-76
2023/04/29 00:51:35;;;;;;;2.33;1.80;;;15.30;98.60;;;;;;943329;151;27329;-76
2023/04/29 00:54:01;;;;;;;4.55;3.40;;;15.30;98.60;;;;;;943673;151;27301;-76
2023/04/29 00:56:29;;;;;;;3.83;3.20;;;15.30;98.50;;;;;;943800;149;27457;-76
2023/04/29 00:58:54;;;;;;;5.42;3.25;;;15.30;98.50;;;;;;942479;151;27362;-76
2023/04/29 01:01:21;;;;;;;3.22;2.92;;;15.30;98.50;;;;;;943225;151;27296;-76
2023/04/29 01:03:47;;;;;;;4.10;3.08;;;15.40;98.50;;;;;;942872;151;27341;-76
2023/04/29 01:06:23;;;;;;;4.12;2.67;;;15.40;98.50;;;;;;943658;149;27443;-76
2023/04/29 01:08:58;;;;;;;2.25;2.05;;;15.40;98.50;;;;;;942874;151;27504;-75
2023/04/29 01:11:25;;;;;;;1.90;1.80;;;15.40;98.40;;;;;;942565;151;27365;-75
2023/04/29 01:13:54;;;;;;;1.55;1.45;;;15.40;98.30;;;;;;942733;151;27346;-76
2023/04/29 01:16:21;;;;;;;1.75;1.65;;;15.40;98.30;;;;;;942238;151;27445;-76
2023/04/29 01:18:56;;;;;;;1.80;1.70;;;15.40;98.30;;;;;;942566;149;27393;-76
2023/04/29 01:21:23;;;;;;;1.55;1.45;;;15.40;98.30;;;;;;939628;151;27450;-76
2023/04/29 01:23:55;;;;;;;2.03;1.47;;;15.40;98.30;;;;;;942422;151;27262;-75
2023/04/29 01:26:16;;;;;;;1.67;1.57;;;15.40;98.40;;;;;;942149;149;27373;-76
2023/04/29 01:28:45;;;;;;;1.60;1.50;;;15.40;98.50;;;;;;942244;151;27400;-75
2023/04/29 01:31:15;;;;;;;1.80;1.70;;;15.40;98.50;;;;;;937289;149;27361;-76
2023/04/29 01:33:41;;;;;;;1.80;1.40;;;15.40;98.50;;;;;;936752;151;27321;-75
2023/04/29 01:36:26;;;;;;;1.70;1.60;;;15.40;98.60;;;;;;935216;150;27473;-75
2023/04/29 01:38:53;;;;;;;1.70;1.60;;;15.40;98.70;;;;;;937057;151;27438;-76
2023/04/29 01:41:41;;;;;;;1.80;1.70;;;15.40;98.60;;;;;;936771;152;27290;-75
2023/04/29 01:44:07;;;;;;;1.50;1.40;;;15.40;98.70;;;;;;936970;151;27328;-75
2023/04/29 01:46:34;;;;;;;1.82;1.72;;;15.40;98.70;;;;;;937258;150;27385;-75
2023/04/29 01:49:00;;;;;;;2.17;1.40;;;15.40;98.70;;;;;;937487;152;27375;-76
2023/04/29 01:51:28;;;;;;;1.80;1.70;;;15.40;98.60;;;;;;937518;152;27328;-75
2023/04/29 01:53:53;;;;;;;2.05;1.85;;;15.40;98.70;;;;;;936206;152;27335;-75
2023/04/29 01:56:20;;;;;;;2.40;2.10;;;15.40;98.60;;;;;;937302;151;27437;-76
2023/04/29 01:58:47;;;;;;;1.87;1.77;;;15.40;98.60;;;;;;937067;152;27458;-75
2023/04/29 02:01:14;;;;;;;1.70;1.60;;;15.40;98.60;;;;;;937393;151;27323;-75
2023/04/29 02:03:40;;;;;;;2.17;1.90;;;15.50;98.60;;;;;;936788;152;27290;-75
2023/04/29 02:06:06;;;;;;;2.10;1.90;;;15.50;98.50;;;;;;937161;150;27302;-76
2023/04/29 02:08:33;;;;;;;2.00;1.85;;;15.50;98.40;;;;;;937000;150;27357;-76
2023/04/29 02:11:00;;;;;;;1.95;1.85;;;15.40;98.30;;;;;;937470;152;27363;-75
2023/04/29 02:13:26;;;;;;;1.80;1.70;;;15.40;98.30;;;;;;936266;149;27418;-75
2023/04/29 02:15:53;;;;;;;1.72;1.62;;;15.40;98.30;;;;;;936915;151;27330;-75
2023/04/29 02:18:21;;;;;;;3.17;1.70;;;15.40;98.30;;;;;;937709;151;27350;-75
2023/04/29 02:20:49;;;;;;;1.70;1.53;;;15.40;98.20;;;;;;937402;152;27403;-76
2023/04/29 02:23:14;;;;;;;1.70;1.60;;;15.40;98.20;;;;;;936458;151;27401;-75
2023/04/29 02:25:40;;;;;;;2.07;1.60;;;15.40;98.30;;;;;;937507;150;27369;-75
2023/04/29 02:28:07;;;;;;;1.77;1.50;;;15.40;98.20;;;;;;937086;152;27392;-75
2023/04/29 02:30:33;;;;;;;2.45;1.80;;;15.40;98.20;;;;;;939767;151;27418;-75
2023/04/29 02:33:00;;;;;;;1.80;1.70;;;15.40;98.30;;;;;;943749;151;27394;-75
2023/04/29 02:35:27;;;;;;;1.90;1.77;;;15.30;98.30;;;;;;943746;151;27343;-75
2023/04/29 02:37:53;;;;;;;2.07;1.97;;;15.30;98.30;;;;;;942845;151;27458;-76
2023/04/29 02:40:20;;;;;;;3.08;1.90;;;15.30;98.20;;;;;;942408;151;27313;-76
2023/04/29 02:42:46;;;;;;;1.80;1.70;;;15.30;98.20;;;;;;942223;151;27294;-76
2023/04/29 02:45:13;;;;;;;2.15;2.02;;;15.30;98.20;;;;;;942917;151;27330;-76
2023/04/29 02:47:40;;;;;;;2.00;1.90;;;15.30;98.20;;;;;;942560;149;27780;-75
2023/04/29 02:50:06;;;;;;;1.90;1.80;;;15.30;98.20;;;;;;942943;151;27332;-75
2023/04/29 02:52:33;;;;;;;2.10;2.00;;;15.30;98.20;;;;;;943188;151;27343;-75
2023/04/29 02:54:59;;;;;;;2.40;1.90;;;15.30;98.30;;;;;;943940;151;27308;-76
2023/04/29 02:57:28;;;;;;;1.82;1.72;;;15.30;98.30;;;;;;943244;149;27447;-75
2023/04/29 02:59:53;;;;;;;1.90;1.80;;;15.30;98.30;;;;;;943500;151;27437;-75
2023/04/29 03:02:19;;;;;;;1.93;1.83;;;15.30;98.60;;;;;;942848;151;27355;-75
2023/04/29 03:04:46;;;;;;;2.00;1.90;;;15.30;98.30;;;;;;943812;150;27381;-75
2023/04/29 03:07:12;;;;;;;1.87;1.77;;;15.30;98.30;;;;;;943055;151;27380;-76
2023/04/29 03:09:39;;;;;;;4.10;1.92;;;15.20;98.40;;;;;;943349;151;27395;-75
2023/04/29 03:12:06;;;;;;;1.60;1.50;;;15.20;98.40;;;;;;942212;151;27568;-76
2023/04/29 03:14:32;;;;;;;1.60;1.50;;;15.20;98.40;;;;;;943841;150;27272;-75
2023/04/29 03:16:59;;;;;;;12.43;3.70;;;15.20;98.40;;;;;;943426;149;27323;-75
2023/04/29 03:19:25;;;;;;;1.90;1.80;;;15.30;98.50;;;;;;942418;151;27454;-75
2023/04/29 03:21:52;;;;;;;1.53;1.43;;;15.30;98.50;;;;;;942850;151;27447;-74
2023/04/29 03:24:18;;;;;;;1.72;1.62;;;15.30;98.50;;;;;;943164;149;27311;-76
2023/04/29 03:26:45;;;;;;;1.57;1.47;;;15.30;98.50;;;;;;943182;149;27328;-75
2023/04/29 03:29:12;;;;;;;2.05;1.87;;;15.30;98.40;;;;;;943201;149;27362;-76
2023/04/29 03:31:38;;;;;;;2.27;2.08;;;15.30;98.40;;;;;;943796;151;27390;-75
2023/04/29 03:34:05;;;;;;;1.80;1.60;;;15.30;98.30;;;;;;943425;151;27273;-75
2023/04/29 03:36:31;;;;;;;2.02;1.92;;;15.40;98.40;;;;;;942661;149;27368;-75
2023/04/29 03:38:58;;;;;;;1.70;1.60;;;15.40;98.30;;;;;;944004;151;27489;-75
2023/04/29 03:41:25;;;;;;;1.90;1.80;;;15.40;98.20;;;;;;943167;151;27375;-75
2023/04/29 03:43:51;;;;;;;1.53;1.43;;;15.40;98.20;;;;;;942200;151;27295;-75
2023/04/29 03:46:18;;;;;;;1.90;1.80;;;15.40;98.20;;;;;;943069;149;27317;-76
2023/04/29 03:48:44;;;;;;;2.13;2.00;;;15.40;98.20;;;;;;943264;151;27353;-76
2023/04/29 03:51:12;;;;;;;1.72;1.62;;;15.50;98.20;;;;;;943565;151;27461;-76
2023/04/29 03:53:38;;;;;;;2.40;2.00;;;15.50;98.10;;;;;;943421;151;27399;-75
2023/04/29 03:56:04;;;;;;;1.90;1.80;;;15.50;97.90;;;;;;943512;149;27316;-75
2023/04/29 03:58:31;;;;;;;2.08;1.87;;;15.50;98.00;;;;;;943342;151;27299;-75
2023/04/29 04:00:57;;;;;;;2.10;2.00;;;15.50;98.00;;;;;;943172;151;27358;-75
2023/04/29 04:03:26;;;;;;;2.08;1.90;;;15.50;98.00;;;;;;943343;151;27329;-75
2023/04/29 04:05:50;;;;;;;1.90;1.80;;;15.60;98.00;;;;;;943527;151;27345;-75
2023/04/29 04:08:17;;;;;;;1.90;1.70;;;15.60;98.00;;;;;;942406;149;27420;-75
2023/04/29 04:10:44;;;;;;;2.15;1.90;;;15.60;98.00;;;;;;943483;151;27481;-76
2023/04/29 04:13:10;;;;;;;1.90;1.80;;;15.60;98.00;;;;;;943532;151;27463;-75
2023/04/29 04:15:37;;;;;;;2.12;2.00;;;15.70;98.00;;;;;;943986;151;27311;-75
2023/04/29 04:18:04;;;;;;;2.00;1.80;;;15.70;98.00;;;;;;943286;151;27323;-75
2023/04/29 04:20:30;;;;;;;1.75;1.65;;;15.70;97.90;;;;;;943870;151;27386;-75
2023/04/29 04:22:57;;;;;;;2.30;2.10;;;15.70;98.10;;;;;;943542;151;27364;-75
2023/04/29 04:25:23;;;;;;;1.92;1.82;;;15.70;97.70;;;;;;943460;151;27365;-75
2023/04/29 04:27:50;;;;;;;2.42;2.22;;;15.70;97.60;;;;;;943703;149;27347;-76
2023/04/29 04:30:16;;;;;;;2.50;2.40;;;15.80;97.50;;;;;;943412;151;27330;-75
2023/04/29 04:32:43;;;;;;;2.20;2.10;;;15.80;97.50;;;;;;924657;151;27408;-75
2023/04/29 04:35:10;;;;;;;2.75;2.55;;;15.70;97.50;;;;;;918684;151;27388;-75
2023/04/29 04:37:36;;;;;;;2.50;2.35;;;15.80;97.40;;;;;;919173;151;27424;-75
2023/04/29 04:40:03;;;;;;;3.50;3.20;;;15.80;97.70;;;;;;919583;151;27414;-75
2023/04/29 04:42:29;;;;;;;3.10;2.90;;;15.80;97.20;;;;;;918775;153;27466;-76
2023/04/29 04:44:56;;;;;;;3.67;3.37;;;15.90;97.10;;;;;;923521;153;27392;-75
2023/04/29 04:47:22;;;;;;;3.40;3.20;;;15.80;97.00;;;;;;920043;153;27417;-75
2023/04/29 04:49:50;;;;;;;3.35;3.05;;;15.90;96.90;;;;;;919989;153;27233;-75
2023/04/29 04:52:16;;;;;;;3.90;3.65;;;15.90;96.90;;;;;;933451;150;27429;-76
2023/04/29 04:54:42;;;;;;;4.22;3.92;;;15.90;96.80;;;;;;932062;150;27333;-76
2023/04/29 04:57:09;;;;;;;3.90;3.60;;;15.90;96.60;;;;;;931750;150;27391;-75
2023/04/29 04:59:35;;;;;;;3.80;3.50;;;15.90;96.50;;;;;;932757;150;27353;-75
2023/04/29 05:02:02;;;;;;;4.10;3.80;;;15.90;96.40;;;;;;932169;150;27457;-75
2023/04/29 05:04:29;;;;;;;4.65;4.20;;;15.90;96.40;;;;;;933219;150;27316;-75
2023/04/29 05:06:55;;;;;;;4.30;4.00;;;16.00;96.40;;;;;;931558;150;27826;-75
2023/04/29 05:09:22;;;;;;;4.50;4.20;;;16.00;96.30;;;;;;932005;150;27522;-76
2023/04/29 05:11:49;;;;;;;4.95;4.55;;;15.90;96.20;;;;;;932838;150;27345;-76
2023/04/29 05:14:15;;;;;;;4.42;4.12;;;16.00;96.10;;;;;;933065;150;27328;-75
2023/04/29 05:16:43;;;;;;;4.83;4.33;;;16.00;96.10;;;;;;932193;150;27333;-75
2023/04/29 05:19:08;;;;;;;6.08;4.78;;;16.00;96.30;;;;;;932095;150;27356;-75
2023/04/29 05:21:35;;;;;;;4.92;4.40;;;16.10;96.50;;;;;;932189;150;27353;-75
2023/04/29 05:24:01;;;;;;;5.53;5.03;;;16.10;96.30;;;;;;932866;150;27493;-76
2023/04/29 05:26:28;;;;;;;5.90;5.17;;;16.20;95.90;;;;;;931898;150;27393;-75
2023/04/29 05:28:54;;;;;;;6.28;5.62;;;16.30;95.50;;;;;;933240;150;27404;-75
2023/04/29 05:31:21;;;;;;;6.08;5.58;;;16.40;95.00;;;;;;933105;150;27315;-76
2023/04/29 05:33:48;;;;;;;5.50;5.03;;;16.40;94.50;;;;;;936221;149;27402;-76
2023/04/29 05:36:14;;;;;;;6.10;5.50;;;16.50;94.10;;;;;;935162;149;27301;-76
2023/04/29 05:38:44;;;;;;;5.95;5.45;;;16.50;93.60;;;;;;918229;152;27781;-75
2023/04/29 05:41:07;;;;;;;6.62;5.65;;;16.60;93.20;;;;;;935178;149;27395;-76
2023/04/29 05:43:34;;;;;;;6.25;5.72;;;16.60;92.80;;;;;;918390;152;27440;-75
2023/04/29 05:46:01;;;;;;;7.30;6.53;;;16.70;92.20;;;;;;912011;153;27518;-75
2023/04/29 05:48:28;;;;;;;6.20;5.60;;;16.70;91.70;;;;;;934956;150;27456;-75
2023/04/29 05:50:54;;;;;;;6.45;5.85;;;16.70;91.50;;;;;;935550;149;27381;-76
2023/04/29 05:53:20;;;;;;;6.70;6.00;;;16.70;91.30;;;;;;919739;152;27312;-75
2023/04/29 05:55:49;;;;;;;5.85;5.25;;;16.70;91.00;;;;;;919381;152;27323;-76
2023/04/29 05:58:14;;;;;;;6.17;5.58;;;16.70;90.80;;;;;;918998;152;27336;-76
2023/04/29 06:00:40;;;;;;;5.87;5.28;;;16.80;90.60;;;;;;917775;152;27415;-75
2023/04/29 06:03:07;;;;;;;5.90;5.20;;;16.80;90.20;;;;;;910980;153;27273;-75
2023/04/29 06:05:33;;;;;;;5.80;5.22;;;16.80;90.10;;;;;;934545;150;27267;-75
2023/04/29 06:08:01;;;;;;;6.35;5.70;;;16.80;90.00;;;;;;935229;149;27487;-76
2023/04/29 06:10:26;;;;;;;5.70;5.20;;;16.80;90.00;;;;;;935217;149;27393;-75
2023/04/29 06:12:53;;;;;;;6.55;5.45;;;16.90;90.10;;;;;;934684;149;27350;-76
2023/04/29 06:15:20;;;;;;;6.33;5.45;;;16.90;89.90;;;;;;912918;152;27822;-75
2023/04/29 06:17:47;;;;;;;7.30;5.65;;;17.00;89.40;;;;;;935513;149;27334;-76
2023/04/29 06:20:13;;;;;;;5.85;5.35;;;17.10;89.10;;;;;;922739;152;27400;-75
2023/04/29 06:22:40;;;;;;;5.17;4.65;;;17.20;89.40;;;;;;911533;153;27420;-75
2023/04/29 06:25:06;;;;;;;5.28;4.78;;;17.30;89.40;;;;;;935184;149;27506;-75
2023/04/29 06:27:33;;;;;;;4.80;4.40;;;17.40;89.70;;;;;;934317;150;27326;-75
2023/04/29 06:29:59;;;;;;;5.12;4.33;;;17.50;89.50;;;;;;934897;149;27365;-75
2023/04/29 06:32:26;;;;;;;4.22;3.83;;;17.70;89.00;;;;;;935562;149;27462;-75
2023/04/29 06:34:52;;;;;;;5.00;4.20;;;17.90;88.40;;;;;;947240;149;27445;-75
2023/04/29 06:37:19;;;;;;;4.80;4.30;;;18.10;87.10;;;;;;931092;151;27345;-75
2023/04/29 06:39:46;;;;;;;3.80;3.47;;;18.20;86.20;;;;;;947221;149;27320;-75
2023/04/29 06:42:12;;;;;;;4.22;3.85;;;18.40;85.80;;;;;;946286;148;27449;-76
2023/04/29 06:44:39;;;;;;;4.22;3.90;;;18.60;85.70;;;;;;946454;148;27387;-75
2023/04/29 06:47:05;;;;;;;4.58;4.17;;;18.80;86.40;;;;;;947892;148;27344;-76
2023/04/29 06:49:32;;;;;;;3.47;3.17;;;19.10;86.80;;;;;;935054;151;27302;-76
2023/04/29 06:52:01;;;;;;;3.67;3.37;;;19.50;87.40;;;;;;926639;152;27365;-75
2023/04/29 06:54:26;;;;;;;2.98;2.77;;;19.90;88.30;;;;;;946421;149;27449;-75
2023/04/29 06:56:52;;;;;;;3.80;3.40;;;20.40;87.20;;;;;;929928;151;27351;-75
2023/04/29 06:59:18;;;;;;;3.12;2.87;;;21.00;84.60;;;;;;946977;148;27353;-75
2023/04/29 07:01:45;;;;;;;3.00;2.70;;;21.40;81.20;;;;;;946427;150;27268;-75
2023/04/29 07:04:11;;;;;;;2.65;2.45;;;21.70;78.40;;;;;;945873;149;27461;-76
2023/04/29 07:06:38;;;;;;;2.50;2.30;;;22.00;75.60;;;;;;945633;151;27443;-75
2023/04/29 07:09:05;;;;;;;2.87;2.67;;;22.30;74.10;;;;;;945569;151;27360;-75
2023/04/29 07:11:31;;;;;;;2.72;2.52;;;22.40;73.00;;;;;;930524;151;27431;-76
2023/04/29 07:13:58;;;;;;;2.50;2.30;;;22.60;71.70;;;;;;946977;148;27410;-75
2023/04/29 07:16:26;;;;;;;3.17;2.90;;;22.70;70.50;;;;;;947247;148;27367;-75
2023/04/29 07:18:51;;;;;;;3.15;2.58;;;22.70;69.10;;;;;;946449;149;27290;-76
2023/04/29 07:21:18;;;;;;;2.95;2.75;;;22.70;68.10;;;;;;947769;148;27945;-75
2023/04/29 07:23:44;;;;;;;2.90;2.70;;;22.70;67.30;;;;;;946354;148;27333;-76
2023/04/29 07:26:11;;;;;;;2.60;2.12;;;22.60;66.60;;;;;;946682;148;27360;-76
2023/04/29 07:28:37;;;;;;;3.27;2.98;;;22.50;66.30;;;;;;946087;148;27336;-76
2023/04/29 07:31:04;;;;;;;2.40;2.20;;;22.40;66.10;;;;;;935180;151;27328;-76
2023/04/29 07:33:31;;;;;;;2.37;2.15;;;22.30;65.90;;;;;;928387;150;27490;-76
2023/04/29 07:35:57;;;;;;;2.45;2.25;;;22.20;65.70;;;;;;951258;148;27433;-76
2023/04/29 07:38:24;;;;;;;2.50;2.30;;;22.10;65.10;;;;;;952007;148;27371;-76
2023/04/29 07:40:50;;;;;;;2.25;2.12;;;22.00;64.50;;;;;;951173;148;27417;-76
2023/04/29 07:43:17;;;;;;;2.33;2.17;;;21.80;64.10;;;;;;952091;148;27288;-76
2023/04/29 07:45:43;;;;;;;2.67;2.47;;;21.60;63.90;;;;;;951688;148;27392;-76
2023/04/29 07:48:10;;;;;;;3.12;2.83;;;21.40;63.60;;;;;;951132;147;27355;-76
2023/04/29 07:50:37;;;;;;;3.00;2.80;;;21.20;63.70;;;;;;950700;148;27403;-75
2023/04/29 07:53:03;;;;;;;2.72;2.55;;;20.90;63.70;;;;;;951492;148;27384;-76
2023/04/29 07:55:30;;;;;;;3.25;2.98;;;20.70;63.90;;;;;;951672;148;27395;-76
2023/04/29 07:57:56;;;;;;;3.10;2.90;;;20.50;64.30;;;;;;951077;148;27432;-75
2023/04/29 08:00:23;;;;;;;3.42;3.12;;;20.30;64.70;;;;;;934428;150;27378;-75
2023/04/29 08:02:52;;;;;;;3.90;3.50;;;20.20;65.30;;;;;;936201;150;27925;-75
2023/04/29 08:05:20;;;;;;;3.15;2.95;;;20.10;65.60;;;;;;951227;148;27404;-75
2023/04/29 08:07:46;;;;;;;3.55;3.25;;;19.90;65.80;;;;;;934270;150;27467;-76
2023/04/29 08:10:12;;;;;;;3.92;3.52;;;19.90;65.90;;;;;;935340;150;27439;-75
2023/04/29 08:12:39;;;;;;;3.90;3.60;;;19.80;65.80;;;;;;951444;148;27316;-75
2023/04/29 08:15:06;;;;;;;3.60;3.30;;;19.70;65.80;;;;;;951351;148;27420;-76
2023/04/29 08:17:32;;;;;;;3.65;3.35;;;19.60;66.10;;;;;;938899;150;27350;-76
2023/04/29 08:19:59;;;;;;;3.35;3.05;;;19.50;66.20;;;;;;932251;151;27475;-75
2023/04/29 08:22:26;;;;;;;3.10;2.90;;;19.40;66.30;;;;;;949606;148;27464;-75
2023/04/29 08:24:52;;;;;;;3.42;2.83;;;19.30;66.60;;;;;;948541;151;27656;-76
2023/04/29 08:27:20;;;;;;;2.47;2.27;;;19.30;66.80;;;;;;948950;151;27415;-76
2023/04/29 08:29:45;;;;;;;2.40;2.20;;;19.20;67.00;;;;;;939323;150;27364;-75
2023/04/29 08:32:12;;;;;;;2.55;2.35;;;19.20;67.00;;;;;;949203;151;27431;-75
2023/04/29 08:34:40;;;;;;;2.80;2.47;;;19.20;67.10;;;;;;945684;151;27462;-76
2023/04/29 08:37:05;;;;;;;2.20;2.00;;;19.20;67.20;;;;;;942407;149;27311;-76
2023/04/29 08:39:32;;;;;;;2.45;2.25;;;19.20;67.50;;;;;;932795;149;27320;-75
2023/04/29 08:41:59;;;;;;;2.35;2.22;;;19.30;67.70;;;;;;927146;152;27464;-76
2023/04/29 08:44:29;;;;;;;2.00;1.90;;;19.30;67.60;;;;;;926836;152;27452;-76
2023/04/29 08:46:54;;;;;;;1.72;1.60;;;19.30;67.40;;;;;;925953;152;27354;-75
2023/04/29 08:49:21;;;;;;;2.02;1.92;;;19.30;67.20;;;;;;927021;152;27310;-75
2023/04/29 08:51:53;;;;;;;2.33;2.12;;;19.40;67.10;;;;;;927001;152;27409;-75
2023/04/29 08:54:19;;;;;;;3.37;2.27;;;19.50;66.90;;;;;;926516;152;27334;-76
2023/04/29 08:56:46;;;;;;;1.92;1.82;;;19.50;66.60;;;;;;912118;153;27666;-75
2023/04/29 08:59:15;;;;;;;2.40;2.20;;;19.50;66.40;;;;;;934225;149;27659;-76
2023/04/29 09:01:42;;;;;;;2.50;2.30;;;19.40;66.40;;;;;;934233;150;27481;-76
2023/04/29 09:04:11;;;;;;;2.55;2.35;;;19.40;66.50;;;;;;934237;149;27338;-76
2023/04/29 09:06:37;;;;;;;2.22;2.05;;;19.40;66.60;;;;;;935171;149;27305;-76
2023/04/29 09:09:04;;;;;;;2.45;2.25;;;19.40;66.70;;;;;;917533;152;27824;-75
2023/04/29 09:11:31;;;;;;;2.62;2.42;;;19.40;66.70;;;;;;934975;149;27369;-76
2023/04/29 09:14:00;;;;;;;2.05;1.85;;;19.40;66.60;;;;;;928443;150;27327;-76
2023/04/29 09:16:27;;;;;;;2.67;2.47;;;19.40;66.60;;;;;;934769;148;27438;-75
2023/04/29 09:18:55;;;;;;;2.37;2.27;;;19.40;66.70;;;;;;918354;152;27372;-75
2023/04/29 09:21:20;;;;;;;2.75;2.55;;;19.40;66.70;;;;;;934123;149;27392;-76
2023/04/29 09:23:47;;;;;;;2.52;2.33;;;19.40;66.50;;;;;;919276;152;27327;-76
2023/04/29 09:26:13;;;;;;;2.42;2.22;;;19.40;66.40;;;;;;911018;152;27352;-76
2023/04/29 09:28:42;;;;;;;2.85;2.65;;;19.40;66.30;;;;;;932830;149;27291;-76
2023/04/29 09:31:07;;;;;;;2.77;2.58;;;19.40;66.20;;;;;;917960;152;27412;-76
2023/04/29 09:33:51;;;;;;;2.52;2.33;;;19.40;66.20;;;;;;919741;152;27350;-76
2023/04/29 09:36:46;;;;;;;2.70;2.50;;;19.40;66.30;;;;;;912726;152;27488;-76
2023/04/29 09:39:12;;;;;;;2.90;2.70;;;19.50;66.40;;;;;;919373;152;27327;-76
2023/04/29 09:41:53;;;;;;;2.67;2.47;;;19.50;66.50;;;;;;921937;152;27357;-76
2023/04/29 09:44:22;;;;;;;2.55;2.35;;;19.50;66.60;;;;;;911890;153;27401;-76
2023/04/29 09:47:02;;;;;;;2.80;2.60;;;19.50;66.70;;;;;;934031;149;27358;-76
2023/04/29 09:49:28;;;;;;;2.60;2.40;;;19.50;66.80;;;;;;934212;149;27326;-76
2023/04/29 09:51:58;;;;;;;2.55;2.35;;;19.60;66.60;;;;;;911391;153;27324;-76
2023/04/29 09:54:24;;;;;;;2.85;2.65;;;19.70;66.60;;;;;;926782;152;27470;-76
2023/04/29 09:56:51;;;;;;;2.50;2.30;;;19.80;66.30;;;;;;926737;152;27398;-76
2023/04/29 09:59:18;;;;;;;2.60;2.40;;;19.80;66.30;;;;;;927026;152;27333;-76
2023/04/29 10:01:44;;;;;;;2.80;2.60;;;19.90;66.30;;;;;;926830;152;27345;-76
2023/04/29 10:04:11;;;;;;;2.98;2.77;;;20.00;66.20;;;;;;926978;152;27358;-76
2023/04/29 10:06:37;;;;;;;2.83;2.60;;;20.10;66.00;;;;;;927883;152;27388;-76
2023/04/29 10:09:04;;;;;;;2.70;2.50;;;20.10;65.60;;;;;;926618;152;27391;-76
2023/04/29 10:11:30;;;;;;;3.58;2.52;;;20.10;65.30;;;;;;927183;152;27349;-76
2023/04/29 10:13:57;;;;;;;2.55;2.35;;;20.20;65.10;;;;;;911910;153;27346;-76
2023/04/29 10:16:26;;;;;;;2.80;2.60;;;20.10;64.60;;;;;;933848;149;27368;-76
2023/04/29 10:18:53;;;;;;;3.08;2.80;;;20.10;64.40;;;;;;918350;152;27432;-76
2023/04/29 10:21:20;;;;;;;2.95;2.75;;;20.10;64.40;;;;;;934426;149;27314;-76
2023/04/29 10:23:46;;;;;;;3.17;2.90;;;20.00;64.30;;;;;;934902;149;27485;-76
2023/04/29 10:26:12;;;;;;;3.22;2.92;;;19.90;64.20;;;;;;935437;149;27368;-76
2023/04/29 10:28:39;;;;;;;3.95;3.52;;;19.80;64.40;;;;;;934402;149;27392;-76
2023/04/29 10:31:06;;;;;;;3.65;3.35;;;19.80;64.50;;;;;;933806;149;27471;-76
2023/04/29 10:33:32;;;;;;;3.25;3.05;;;19.70;64.60;;;;;;918647;152;27351;-76
2023/04/29 10:35:59;;;;;;;3.50;3.20;;;19.60;64.60;;;;;;911822;150;27537;-76
2023/04/29 10:38:34;;;;;;;3.52;3.22;;;19.50;64.50;;;;;;934417;150;27365;-76
2023/04/29 10:41:01;;;;;;;3.90;3.50;;;19.50;64.60;;;;;;935020;149;27423;-76
2023/04/29 10:43:27;;;;;;;3.55;3.25;;;19.40;64.60;;;;;;911491;152;27332;-76
2023/04/29 10:46:15;;;;;;;3.62;3.33;;;19.30;64.70;;;;;;918752;152;27476;-76
2023/04/29 10:48:45;;;;;;;3.35;3.15;;;19.20;64.90;;;;;;913885;152;27422;-76
2023/04/29 10:51:13;;;;;;;3.27;2.98;;;19.10;65.10;;;;;;911775;153;27494;-76
2023/04/29 10:54:12;;;;;;;4.47;3.90;;;19.00;65.40;;;;;;934015;149;27378;-76
2023/04/29 10:56:49;;;;;;;6.37;3.30;;;19.00;65.70;;;;;;912508;153;27335;-76
2023/04/29 10:59:14;;;;;;;3.42;3.12;;;18.90;65.80;;;;;;911681;153;27325;-76
2023/04/29 11:01:46;;;;;;;3.02;2.75;;;18.90;65.90;;;;;;927519;152;27495;-76
2023/04/29 11:04:13;;;;;;;3.58;3.27;;;18.80;65.90;;;;;;926265;152;27456;-76
2023/04/29 11:06:40;;;;;;;3.45;3.15;;;18.80;66.20;;;;;;927358;152;27367;-76
2023/04/29 11:09:15;;;;;;;2.90;2.70;;;18.80;66.50;;;;;;926679;152;27469;-76
2023/04/29 11:12:02;;;;;;;3.00;2.80;;;18.80;66.60;;;;;;926379;152;27473;-76
2023/04/29 11:14:35;;;;;;;2.87;2.50;;;18.80;66.70;;;;;;926355;152;27390;-76
2023/04/29 11:17:02;;;;;;;2.67;2.47;;;18.90;66.90;;;;;;926644;151;27470;-76
2023/04/29 11:19:35;;;;;;;2.40;2.20;;;18.90;67.00;;;;;;926166;151;27396;-76
2023/04/29 11:22:10;;;;;;;2.25;2.15;;;19.00;67.10;;;;;;926069;151;27459;-76
2023/04/29 11:24:49;;;;;;;2.45;2.27;;;19.10;67.20;;;;;;913077;152;27406;-76
2023/04/29 11:27:15;;;;;;;3.20;2.90;;;19.30;67.50;;;;;;918137;152;27351;-76
2023/04/29 11:29:42;;;;;;;2.80;2.60;;;19.40;67.60;;;;;;932620;149;27349;-77
2023/04/29 11:32:09;;;;;;;2.67;2.47;;;19.60;67.70;;;;;;933947;149;27453;-77
2023/04/29 11:34:35;;;;;;;2.62;2.27;;;19.80;67.70;;;;;;933076;149;27449;-77
2023/04/29 11:37:02;;;;;;;2.27;2.08;;;20.10;67.80;;;;;;945802;147;27401;-77
2023/04/29 11:39:28;;;;;;;2.65;2.45;;;20.30;67.40;;;;;;951843;147;27387;-77
2023/04/29 11:42:04;;;;;;;2.60;2.40;;;20.60;66.90;;;;;;953564;147;27432;-77
2023/04/29 11:44:31;;;;;;;2.33;2.12;;;20.90;66.70;;;;;;953614;147;27322;-77
2023/04/29 11:47:03;;;;;;;2.45;2.25;;;21.10;66.40;;;;;;953518;147;27362;-77
2023/04/29 11:49:30;;;;;;;1.85;1.75;;;21.40;66.00;;;;;;953525;147;27312;-77
2023/04/29 11:51:56;;;;;;;1.90;1.80;;;21.70;65.40;;;;;;953200;147;27409;-78
2023/04/29 11:54:23;;;;;;;1.40;1.30;;;21.90;64.60;;;;;;954620;147;27436;-78
2023/04/29 11:56:49;;;;;;;1.70;1.60;;;22.20;64.10;;;;;;953890;147;27360;-78
2023/04/29 11:59:17;;;;;;;1.20;1.20;;;22.40;63.60;;;;;;953504;147;27341;-78
2023/04/29 12:01:43;;;;;;;1.50;1.40;;;22.60;62.80;;;;;;953327;147;27315;-78
2023/04/29 12:04:09;;;;;;;1.85;1.62;;;22.80;62.20;;;;;;953247;147;27328;-78
2023/04/29 12:06:36;;;;;;;2.65;1.75;;;23.00;61.70;;;;;;953973;147;27324;-77
2023/04/29 12:09:03;;;;;;;1.80;1.70;;;23.10;61.50;;;;;;954390;147;27395;-78
2023/04/29 12:11:29;;;;;;;1.85;1.67;;;23.30;61.10;;;;;;953386;147;27332;-78
2023/04/29 12:13:56;;;;;;;1.55;1.40;;;23.40;60.50;;;;;;953814;147;27400;-78
2023/04/29 12:16:22;;;;;;;1.70;1.60;;;23.60;60.00;;;;;;953580;147;27321;-78
2023/04/29 12:18:49;;;;;;;1.80;1.70;;;23.70;59.50;;;;;;954556;147;27453;-78
2023/04/29 12:21:15;;;;;;;1.50;1.40;;;23.80;58.90;;;;;;952477;147;27417;-78
2023/04/29 12:23:42;;;;;;;1.47;1.37;;;23.80;58.50;;;;;;953465;147;27308;-78
2023/04/29 12:26:09;;;;;;;1.47;1.37;;;23.80;58.20;;;;;;953092;147;27300;-78
2023/04/29 12:28:36;;;;;;;1.67;1.57;;;23.80;57.80;;;;;;953994;147;27489;-78
2023/04/29 12:31:02;;;;;;;1.50;1.40;;;23.70;57.60;;;;;;953664;147;27368;-78
2023/04/29 12:33:28;;;;;;;2.17;1.98;;;23.60;57.60;;;;;;953396;147;27328;-78
2023/04/29 12:35:55;;;;;;;1.40;1.30;;;23.60;57.60;;;;;;953125;147;27408;-78
2023/04/29 12:38:27;;;;;;;1.52;1.42;;;23.50;57.40;;;;;;953556;147;27351;-78
2023/04/29 12:40:54;;;;;;;1.50;1.40;;;23.40;57.50;;;;;;953006;147;27447;-78
2023/04/29 12:43:20;;;;;;;1.52;1.42;;;23.40;57.20;;;;;;952825;147;27779;-78
2023/04/29 12:45:47;;;;;;;2.00;1.80;;;23.40;57.30;;;;;;953203;147;27299;-78
2023/04/29 12:48:14;;;;;;;2.50;1.77;;;23.40;57.30;;;;;;953427;147;27401;-78